Time;durP1;ratioP1;P1;durP2;ratioP2;P2;SDS_P1;SDS_P2;PMS_P1;PMS_P2;Temp;Humidity;BMP_temperature;BMP_pressure;BME280_temperature;BME280_humidity;BME280_pressure;Samples;Min_cycle;Max_cycle;Signal;HPM_P1;HPM_P2
2022/11/09 00:01:30;;;;;;;75.22;44.65;;;;;;;;;;5055924;28;20039;-88
2022/11/09 00:04:01;;;;;;;81.38;44.13;;;;;;;;;;5055912;28;20021;-85
2022/11/09 00:06:35;;;;;;;70.60;36.60;;;;;;;;;;5054850;28;20060;-87
2022/11/09 00:09:05;;;;;;;72.47;37.83;;;;;;;;;;5037997;28;20125;-89
2022/11/09 00:11:31;;;;;;;64.82;35.47;;;;;;;;;;5036509;28;20024;-89
2022/11/09 00:14:13;;;;;;;65.65;33.70;;;;;;;;;;5054542;28;20094;-89
2022/11/09 00:16:46;;;;;;;60.05;30.58;;;;;;;;;;5038310;28;20383;-88
2022/11/09 00:19:13;;;;;;;58.78;32.63;;;;;;;;;;5021505;28;20106;-88
2022/11/09 00:21:42;;;;;;;58.63;32.42;;;;;;;;;;5055019;28;20354;-89
2022/11/09 00:24:10;;;;;;;59.95;31.20;;;;;;;;;;5056223;28;20017;-89
2022/11/09 00:26:40;;;;;;;58.45;31.15;;;;;;;;;;5038001;28;20079;-89
2022/11/09 00:29:07;;;;;;;51.90;29.92;;;;;;;;;;5041527;28;20033;-89
2022/11/09 00:31:37;;;;;;;49.80;32.03;;;;;;;;;;5050580;28;20029;-88
2022/11/09 00:34:07;;;;;;;50.78;29.92;;;;;;;;;;5055456;28;20025;-89
2022/11/09 00:36:34;;;;;;;47.63;28.58;;;;;;;;;;5021540;28;20063;-89
2022/11/09 00:39:25;;;;;;;;;;;;;;;;;;;;;
2022/11/09 00:41:58;;;;;;;55.58;30.80;;;;;;;;;;5055682;28;20025;-88
2022/11/09 00:44:36;;;;;;;56.70;30.67;;;;;;;;;;5036803;28;20033;-89
2022/11/09 00:47:13;;;;;;;65.85;36.10;;;;;;;;;;5043399;28;20052;-88
2022/11/09 00:49:48;;;;;;;51.17;28.83;;;;;;;;;;5043387;28;20029;-88
2022/11/09 00:52:14;;;;;;;43.75;26.08;;;;;;;;;;5021698;28;20048;-88
2022/11/09 00:54:47;;;;;;;41.80;23.45;;;;;;;;;;5055533;28;20501;-89
2022/11/09 00:57:17;;;;;;;44.90;25.65;;;;;;;;;;5052577;28;20183;-89
2022/11/09 00:59:44;;;;;;;42.95;25.52;;;;;;;;;;5054575;28;20037;-89
2022/11/09 01:02:12;;;;;;;50.47;26.13;;;;;;;;;;5054431;28;20052;-89
2022/11/09 01:04:38;;;;;;;78.57;30.27;;;;;;;;;;5037956;28;20028;-88
2022/11/09 01:07:07;;;;;;;60.83;29.00;;;;;;;;;;5054945;28;20024;-89
2022/11/09 01:09:36;;;;;;;55.40;26.38;;;;;;;;;;5037302;28;20025;-89
2022/11/09 01:12:05;;;;;;;56.28;28.48;;;;;;;;;;5055632;28;20048;-89
2022/11/09 01:14:33;;;;;;;47.72;25.23;;;;;;;;;;5055125;28;20048;-90
2022/11/09 01:16:59;;;;;;;50.50;26.67;;;;;;;;;;5036916;28;20038;-88
2022/11/09 01:19:25;;;;;;;60.30;28.65;;;;;;;;;;5037295;28;20044;-89
2022/11/09 01:21:53;;;;;;;53.40;25.75;;;;;;;;;;5037832;28;20017;-88
2022/11/09 01:24:19;;;;;;;56.78;30.40;;;;;;;;;;5020650;28;20120;-88
2022/11/09 01:26:45;;;;;;;51.85;27.25;;;;;;;;;;5036952;28;20025;-89
2022/11/09 01:29:12;;;;;;;59.17;27.13;;;;;;;;;;5037102;28;20057;-88
2022/11/09 01:31:38;;;;;;;58.97;27.48;;;;;;;;;;5036496;28;20037;-88
2022/11/09 01:34:07;;;;;;;56.47;26.52;;;;;;;;;;5036797;28;20096;-87
2022/11/09 01:36:33;;;;;;;55.28;26.40;;;;;;;;;;5036655;28;20089;-89
2022/11/09 01:39:03;;;;;;;57.20;26.52;;;;;;;;;;5020515;28;20517;-89
2022/11/09 01:41:46;;;;;;;55.10;25.65;;;;;;;;;;5054056;28;20360;-88
2022/11/09 01:44:12;;;;;;;57.60;25.92;;;;;;;;;;5038079;28;20475;-88
2022/11/09 01:46:46;;;;;;;49.95;24.02;;;;;;;;;;5038364;28;20050;-89
2022/11/09 01:49:24;;;;;;;47.50;23.05;;;;;;;;;;5073398;28;20040;-87
2022/11/09 01:51:52;;;;;;;44.95;24.70;;;;;;;;;;5056607;28;20035;-88
2022/11/09 01:54:28;;;;;;;47.15;26.30;;;;;;;;;;5065347;28;20029;-89
2022/11/09 01:57:19;;;;;;;47.60;24.15;;;;;;;;;;5053816;28;20033;-88
2022/11/09 01:59:48;;;;;;;47.88;27.05;;;;;;;;;;5041384;28;20028;-88
2022/11/09 02:02:14;;;;;;;46.50;27.15;;;;;;;;;;5038723;28;20513;-89
2022/11/09 02:04:49;;;;;;;48.67;24.17;;;;;;;;;;5036626;28;20025;-90
2022/11/09 02:07:16;;;;;;;43.05;24.88;;;;;;;;;;5035801;28;20029;-89
2022/11/09 02:10:11;;;;;;;42.63;22.60;;;;;;;;;;5053962;28;20363;-90
2022/11/09 02:12:56;;;;;;;49.17;24.92;;;;;;;;;;5048693;28;20029;-88
2022/11/09 02:15:22;;;;;;;46.00;24.90;;;;;;;;;;5032677;28;20380;-88
2022/11/09 02:17:50;;;;;;;47.00;25.55;;;;;;;;;;5032901;28;20498;-89
2022/11/09 02:20:20;;;;;;;43.05;24.83;;;;;;;;;;5033395;28;20049;-88
2022/11/09 02:22:47;;;;;;;41.78;25.02;;;;;;;;;;5032509;28;20109;-88
2022/11/09 02:25:14;;;;;;;41.33;22.95;;;;;;;;;;5016813;28;20472;-89
2022/11/09 02:27:42;;;;;;;41.22;23.20;;;;;;;;;;5032875;28;20461;-88
2022/11/09 02:30:14;;;;;;;43.78;22.48;;;;;;;;;;5037196;28;20045;-88
2022/11/09 02:32:41;;;;;;;48.75;28.02;;;;;;;;;;5038484;28;20036;-88
2022/11/09 02:35:09;;;;;;;39.40;23.73;;;;;;;;;;5038000;28;20030;-88
2022/11/09 02:37:48;;;;;;;43.28;23.25;;;;;;;;;;5030191;28;20042;-88
2022/11/09 02:40:17;;;;;;;43.53;25.48;;;;;;;;;;5016585;28;20430;-87
2022/11/09 02:42:44;;;;;;;43.95;24.48;;;;;;;;;;5017407;28;20530;-87
2022/11/09 02:45:11;;;;;;;47.78;24.38;;;;;;;;;;5017949;28;20060;-88
2022/11/09 02:47:41;;;;;;;38.97;22.58;;;;;;;;;;5017357;28;20426;-89
2022/11/09 02:50:09;;;;;;;46.08;22.77;;;;;;;;;;5017579;28;20033;-88
2022/11/09 02:52:37;;;;;;;49.47;24.92;;;;;;;;;;5017729;28;20498;-88
2022/11/09 02:55:06;;;;;;;43.72;23.13;;;;;;;;;;5018029;28;20030;-89
2022/11/09 02:57:33;;;;;;;34.67;19.67;;;;;;;;;;5017663;28;20037;-89
2022/11/09 02:59:59;;;;;;;44.67;22.33;;;;;;;;;;5016529;28;20414;-89
2022/11/09 03:02:25;;;;;;;43.25;21.75;;;;;;;;;;5000312;28;20479;-88
2022/11/09 03:04:52;;;;;;;45.88;23.83;;;;;;;;;;5016587;28;20037;-89
2022/11/09 03:07:19;;;;;;;38.45;23.25;;;;;;;;;;5016753;28;20041;-89
2022/11/09 03:09:47;;;;;;;50.47;22.67;;;;;;;;;;5016963;28;20033;-88
2022/11/09 03:14:58;;;;;;;43.88;22.95;;;;;;;;;;5026494;28;20068;-89
2022/11/09 03:17:26;;;;;;;40.45;23.13;;;;;;;;;;5037152;28;20061;-90
2022/11/09 03:19:53;;;;;;;41.08;21.83;;;;;;;;;;5020247;28;20029;-88
2022/11/09 03:22:19;;;;;;;41.42;23.50;;;;;;;;;;5019297;28;20474;-88
2022/11/09 03:24:46;;;;;;;44.78;24.20;;;;;;;;;;5036364;28;20041;-88
2022/11/09 03:27:13;;;;;;;41.67;23.30;;;;;;;;;;5036507;28;20033;-88
2022/11/09 03:29:40;;;;;;;41.35;23.00;;;;;;;;;;5036776;28;20067;-88
2022/11/09 03:32:08;;;;;;;40.67;23.67;;;;;;;;;;5025458;28;20080;-88
2022/11/09 03:34:44;;;;;;;41.47;22.95;;;;;;;;;;4987905;28;20111;-89
2022/11/09 03:37:10;;;;;;;41.17;23.05;;;;;;;;;;5018812;28;20029;-88
2022/11/09 03:39:37;;;;;;;45.97;24.25;;;;;;;;;;5019274;28;20026;-88
2022/11/09 03:42:08;;;;;;;46.60;24.13;;;;;;;;;;5020392;28;20037;-89
2022/11/09 03:44:39;;;;;;;42.10;24.30;;;;;;;;;;5034716;28;20065;-89
2022/11/09 03:47:22;;;;;;;42.42;23.48;;;;;;;;;;5041050;28;20040;-88
2022/11/09 03:49:52;;;;;;;44.22;25.30;;;;;;;;;;5055538;28;20028;-88
2022/11/09 03:52:36;;;;;;;44.67;23.27;;;;;;;;;;5040925;28;20029;-89
2022/11/09 03:55:02;;;;;;;43.58;22.88;;;;;;;;;;5040649;28;20055;-90
2022/11/09 03:57:30;;;;;;;40.55;23.48;;;;;;;;;;5061437;28;20029;-88
2022/11/09 03:59:57;;;;;;;45.58;23.73;;;;;;;;;;5042099;28;20021;-88
2022/11/09 04:02:23;;;;;;;46.08;23.73;;;;;;;;;;5038592;28;20478;-88
2022/11/09 04:04:50;;;;;;;43.00;25.27;;;;;;;;;;5056016;28;20032;-88
2022/11/09 04:07:19;;;;;;;46.80;24.58;;;;;;;;;;5038549;28;20045;-88
2022/11/09 04:09:48;;;;;;;43.50;25.27;;;;;;;;;;5040737;28;20048;-88
2022/11/09 04:12:18;;;;;;;40.03;22.65;;;;;;;;;;5048064;28;20052;-88
2022/11/09 04:14:52;;;;;;;45.80;24.55;;;;;;;;;;5039455;28;20515;-88
2022/11/09 04:17:19;;;;;;;43.40;23.65;;;;;;;;;;5022925;28;20049;-87
2022/11/09 04:19:46;;;;;;;41.88;23.80;;;;;;;;;;5016183;28;20089;-89
2022/11/09 04:22:14;;;;;;;47.58;25.50;;;;;;;;;;5015667;28;20026;-89
2022/11/09 04:24:40;;;;;;;49.67;24.40;;;;;;;;;;5015076;28;20022;-89
2022/11/09 04:27:08;;;;;;;43.00;24.48;;;;;;;;;;5015049;28;20096;-89
2022/11/09 04:29:35;;;;;;;39.83;23.13;;;;;;;;;;5016130;28;20030;-90
2022/11/09 04:32:01;;;;;;;49.17;27.13;;;;;;;;;;5015004;28;20026;-88
2022/11/09 04:34:29;;;;;;;47.35;27.08;;;;;;;;;;5015350;28;20026;-88
2022/11/09 04:36:55;;;;;;;50.45;25.75;;;;;;;;;;5024659;28;20075;-89
2022/11/09 04:39:22;;;;;;;47.42;26.55;;;;;;;;;;5034673;28;20033;-89
2022/11/09 04:41:48;;;;;;;44.78;25.67;;;;;;;;;;5033671;28;20021;-89
2022/11/09 04:44:14;;;;;;;44.47;25.25;;;;;;;;;;5018322;28;20033;-89
2022/11/09 04:46:42;;;;;;;52.17;26.33;;;;;;;;;;5034444;28;20037;-88
2022/11/09 04:49:08;;;;;;;44.97;24.55;;;;;;;;;;5018078;28;20495;-90
2022/11/09 04:51:34;;;;;;;47.78;26.00;;;;;;;;;;5034001;28;20394;-88
2022/11/09 04:54:00;;;;;;;49.38;27.88;;;;;;;;;;5034211;28;20031;-88
2022/11/09 04:56:28;;;;;;;60.78;27.00;;;;;;;;;;5035642;28;20044;-87
2022/11/09 04:58:54;;;;;;;47.35;24.52;;;;;;;;;;5035648;28;20428;-88
2022/11/09 05:01:22;;;;;;;48.22;25.30;;;;;;;;;;5035164;28;20053;-89
2022/11/09 05:03:51;;;;;;;45.88;26.40;;;;;;;;;;5034212;28;20058;-87
2022/11/09 05:06:35;;;;;;;48.38;27.63;;;;;;;;;;5033982;28;20026;-89
2022/11/09 05:09:08;;;;;;;47.38;25.75;;;;;;;;;;5035105;28;20507;-88
2022/11/09 05:11:51;;;;;;;48.17;26.45;;;;;;;;;;5035520;28;20076;-88
2022/11/09 05:14:19;;;;;;;48.60;27.15;;;;;;;;;;5035742;28;20029;-88
2022/11/09 05:16:47;;;;;;;52.35;27.63;;;;;;;;;;5055142;28;20025;-88
2022/11/09 05:19:13;;;;;;;53.90;28.00;;;;;;;;;;5037385;28;20021;-88
2022/11/09 05:21:45;;;;;;;50.22;27.83;;;;;;;;;;5055047;28;20017;-88
2022/11/09 05:24:14;;;;;;;44.33;24.42;;;;;;;;;;5055028;28;20029;-89
2022/11/09 05:26:42;;;;;;;53.30;26.13;;;;;;;;;;5055192;28;20040;-88
2022/11/09 05:29:11;;;;;;;53.72;26.50;;;;;;;;;;5049410;28;20048;-88
2022/11/09 05:31:44;;;;;;;49.72;25.77;;;;;;;;;;5037250;28;20031;-88
2022/11/09 05:34:25;;;;;;;53.50;26.13;;;;;;;;;;5052207;28;20055;-88
2022/11/09 05:36:53;;;;;;;57.30;27.83;;;;;;;;;;5053429;28;20120;-89
2022/11/09 05:39:20;;;;;;;52.60;29.02;;;;;;;;;;5054520;28;20104;-87
2022/11/09 05:41:47;;;;;;;56.30;28.70;;;;;;;;;;5054472;28;20025;-88
2022/11/09 05:44:14;;;;;;;64.53;32.50;;;;;;;;;;5054089;28;20048;-88
2022/11/09 05:46:42;;;;;;;56.67;29.50;;;;;;;;;;5036748;28;20032;-88
2022/11/09 05:49:08;;;;;;;55.35;29.38;;;;;;;;;;5036526;28;20041;-88
2022/11/09 05:51:35;;;;;;;55.72;30.65;;;;;;;;;;5037384;28;20100;-88
2022/11/09 05:54:02;;;;;;;63.78;31.70;;;;;;;;;;5037559;28;20108;-88
2022/11/09 05:56:28;;;;;;;57.60;31.52;;;;;;;;;;5036485;28;20032;-88
2022/11/09 05:58:58;;;;;;;56.70;31.23;;;;;;;;;;5020306;28;20078;-88
2022/11/09 06:01:27;;;;;;;53.65;31.27;;;;;;;;;;5020700;28;20032;-88
2022/11/09 06:04:10;;;;;;;59.78;31.55;;;;;;;;;;5052699;28;20036;-88
2022/11/09 06:06:36;;;;;;;57.78;30.00;;;;;;;;;;5037244;28;20471;-88
2022/11/09 06:09:03;;;;;;;60.03;32.03;;;;;;;;;;5036659;28;20032;-88
2022/11/09 06:11:29;;;;;;;59.83;31.58;;;;;;;;;;5036176;28;20044;-89
2022/11/09 06:14:00;;;;;;;59.13;32.95;;;;;;;;;;5058165;28;20040;-88
2022/11/09 06:16:27;;;;;;;61.90;31.13;;;;;;;;;;5046268;28;20491;-87
2022/11/09 06:18:54;;;;;;;62.30;32.97;;;;;;;;;;5030416;28;20113;-88
2022/11/09 06:21:20;;;;;;;66.20;33.92;;;;;;;;;;5047834;28;20014;-85
2022/11/09 06:23:47;;;;;;;64.60;32.83;;;;;;;;;;5046348;28;20036;-89
2022/11/09 06:26:18;;;;;;;60.95;33.13;;;;;;;;;;5046912;28;20025;-87
2022/11/09 06:28:44;;;;;;;58.67;32.63;;;;;;;;;;5024965;28;20041;-87
2022/11/09 06:31:19;;;;;;;60.55;34.00;;;;;;;;;;5032552;28;20403;-86
2022/11/09 06:33:45;;;;;;;61.50;34.78;;;;;;;;;;5016815;28;20029;-89
2022/11/09 06:36:29;;;;;;;65.50;32.63;;;;;;;;;;5033573;28;20053;-86
2022/11/09 06:39:10;;;;;;;57.53;31.50;;;;;;;;;;5033096;28;20053;-88
2022/11/09 06:41:38;;;;;;;62.53;34.13;;;;;;;;;;5032663;28;20030;-89
2022/11/09 06:44:07;;;;;;;57.45;31.38;;;;;;;;;;5032745;28;20034;-86
2022/11/09 06:46:34;;;;;;;61.60;33.45;;;;;;;;;;5016024;28;20113;-87
2022/11/09 06:49:00;;;;;;;55.85;31.83;;;;;;;;;;5032694;28;20025;-88
2022/11/09 06:51:26;;;;;;;59.05;31.73;;;;;;;;;;5032820;28;20017;-89
2022/11/09 06:53:52;;;;;;;54.83;32.15;;;;;;;;;;5032516;28;20056;-88
2022/11/09 06:56:21;;;;;;;56.85;32.72;;;;;;;;;;5032456;28;20025;-87
2022/11/09 06:58:47;;;;;;;67.60;32.88;;;;;;;;;;5032479;28;20103;-86
2022/11/09 07:01:16;;;;;;;62.67;31.85;;;;;;;;;;5032390;28;20029;-86
2022/11/09 07:03:42;;;;;;;57.28;31.92;;;;;;;;;;5033072;28;20026;-87
2022/11/09 07:06:09;;;;;;;62.67;33.50;;;;;;;;;;5034313;28;20483;-87
2022/11/09 07:08:36;;;;;;;63.58;35.03;;;;;;;;;;5017282;28;20037;-88
2022/11/09 07:11:10;;;;;;;77.22;45.55;;;;;;;;;;5033588;28;20032;-87
2022/11/09 07:13:37;;;;;;;61.22;37.85;;;;;;;;;;5032281;28;20021;-88
2022/11/09 07:16:03;;;;;;;57.15;36.40;;;;;;;;;;5034544;28;20513;-89
2022/11/09 07:18:29;;;;;;;58.03;36.45;;;;;;;;;;5036215;28;20059;-87
2022/11/09 07:20:55;;;;;;;56.40;35.90;;;;;;;;;;5035954;28;20503;-87
2022/11/09 07:23:22;;;;;;;56.50;33.53;;;;;;;;;;5036115;28;20026;-87
2022/11/09 07:25:48;;;;;;;60.78;35.88;;;;;;;;;;5036187;28;20108;-88
2022/11/09 07:28:14;;;;;;;59.55;32.90;;;;;;;;;;5035548;28;20021;-88
2022/11/09 07:30:40;;;;;;;55.60;32.03;;;;;;;;;;5036025;28;20072;-88
2022/11/09 07:33:25;;;;;;;48.40;28.73;;;;;;;;;;5035884;28;20055;-88
2022/11/09 07:35:51;;;;;;;46.65;29.95;;;;;;;;;;5035537;28;20152;-88
2022/11/09 07:38:18;;;;;;;50.28;28.80;;;;;;;;;;5035714;28;20038;-87
2022/11/09 07:40:45;;;;;;;51.95;29.83;;;;;;;;;;5035799;28;20029;-88
2022/11/09 07:43:14;;;;;;;42.63;25.48;;;;;;;;;;5035502;28;20025;-88
2022/11/09 07:45:41;;;;;;;55.30;34.13;;;;;;;;;;5032121;28;20033;-87
2022/11/09 07:48:09;;;;;;;49.97;31.33;;;;;;;;;;5015657;28;20056;-87
2022/11/09 07:50:36;;;;;;;48.17;26.88;;;;;;;;;;5014614;28;20026;-87
2022/11/09 07:53:06;;;;;;;53.58;29.45;;;;;;;;;;5015901;28;20058;-87
2022/11/09 07:55:33;;;;;;;46.03;28.63;;;;;;;;;;5015394;28;20025;-89
2022/11/09 07:58:00;;;;;;;50.97;31.67;;;;;;;;;;5015574;28;20029;-88
2022/11/09 08:00:27;;;;;;;45.65;28.20;;;;;;;;;;5015666;28;20069;-88
2022/11/09 08:02:56;;;;;;;44.22;27.65;;;;;;;;;;5015309;28;20022;-87
2022/11/09 08:05:29;;;;;;;45.05;27.45;;;;;;;;;;5016038;28;20033;-88
2022/11/09 08:08:01;;;;;;;43.83;27.67;;;;;;;;;;5016722;28;20095;-89
2022/11/09 08:10:34;;;;;;;41.95;28.63;;;;;;;;;;5032762;28;20052;-89
2022/11/09 08:13:32;;;;;;;45.20;26.17;;;;;;;;;;5036753;28;20041;-88
2022/11/09 08:16:27;;;;;;;47.53;29.40;;;;;;;;;;5033897;28;20037;-87
2022/11/09 08:19:10;;;;;;;46.42;29.73;;;;;;;;;;5018217;28;20046;-90
2022/11/09 08:21:42;;;;;;;47.65;29.25;;;;;;;;;;5016357;28;20056;-88
2022/11/09 08:24:11;;;;;;;46.15;30.08;;;;;;;;;;5017248;28;20036;-87
2022/11/09 08:26:37;;;;;;;45.97;29.00;;;;;;;;;;5016942;28;20029;-89
2022/11/09 08:29:14;;;;;;;46.65;30.45;;;;;;;;;;5016039;28;20030;-89
2022/11/09 08:31:43;;;;;;;50.83;31.15;;;;;;;;;;5014745;28;20093;-89
2022/11/09 08:34:29;;;;;;;49.13;31.55;;;;;;;;;;5015832;28;20394;-88
2022/11/09 08:36:59;;;;;;;47.55;29.83;;;;;;;;;;5014683;28;20475;-89
2022/11/09 08:39:28;;;;;;;48.53;30.00;;;;;;;;;;5014957;28;20072;-86
2022/11/09 08:41:57;;;;;;;51.10;30.08;;;;;;;;;;5016801;28;20031;-88
2022/11/09 08:44:23;;;;;;;48.28;30.17;;;;;;;;;;5014915;28;20029;-89
2022/11/09 08:46:49;;;;;;;47.03;30.92;;;;;;;;;;5016157;28;20030;-88
2022/11/09 08:49:16;;;;;;;57.08;35.80;;;;;;;;;;5016206;28;20025;-87
2022/11/09 08:51:45;;;;;;;69.03;44.45;;;;;;;;;;5014548;28;20026;-87
2022/11/09 08:54:13;;;;;;;70.38;46.60;;;;;;;;;;5016224;28;20078;-88
2022/11/09 08:56:40;;;;;;;61.25;36.17;;;;;;;;;;5014442;28;20038;-86
2022/11/09 08:59:06;;;;;;;70.10;46.30;;;;;;;;;;5014171;28;20022;-87
2022/11/09 09:01:32;;;;;;;93.85;61.78;;;;;;;;;;5014588;28;20021;-87
2022/11/09 09:03:58;;;;;;;92.93;64.32;;;;;;;;;;5014719;28;20029;-87
2022/11/09 09:06:24;;;;;;;74.10;47.72;;;;;;;;;;5014350;28;20026;-87
2022/11/09 09:08:53;;;;;;;73.97;45.63;;;;;;;;;;5014543;28;20022;-88
2022/11/09 09:11:19;;;;;;;65.35;40.13;;;;;;;;;;5014165;28;20030;-87
2022/11/09 09:13:46;;;;;;;53.63;34.17;;;;;;;;;;5014006;28;20036;-87
2022/11/09 09:16:14;;;;;;;54.67;32.33;;;;;;;;;;5014023;28;20042;-88
2022/11/09 09:18:40;;;;;;;58.33;33.75;;;;;;;;;;5014130;28;20029;-87
2022/11/09 09:21:08;;;;;;;55.53;33.22;;;;;;;;;;5013797;28;20018;-88
2022/11/09 09:23:34;;;;;;;54.22;32.83;;;;;;;;;;5014622;28;20038;-89
2022/11/09 09:26:00;;;;;;;59.95;35.90;;;;;;;;;;5013898;28;20380;-86
2022/11/09 09:28:26;;;;;;;54.95;32.85;;;;;;;;;;5014261;28;20040;-88
2022/11/09 09:30:53;;;;;;;63.53;35.45;;;;;;;;;;5014216;28;20506;-88
2022/11/09 09:33:19;;;;;;;54.40;36.10;;;;;;;;;;5013682;28;20022;-85
2022/11/09 09:35:45;;;;;;;54.08;33.60;;;;;;;;;;5013931;28;20112;-86
2022/11/09 09:38:11;;;;;;;49.97;32.20;;;;;;;;;;5013330;28;20026;-84
2022/11/09 09:40:43;;;;;;;50.22;33.70;;;;;;;;;;5014739;28;20105;-86
2022/11/09 09:43:15;;;;;;;46.53;31.23;;;;;;;;;;5013868;28;20419;-87
2022/11/09 09:45:48;;;;;;;56.97;34.97;;;;;;;;;;5015325;28;20097;-86
2022/11/09 09:48:32;;;;;;;47.53;31.85;;;;;;;;;;5013482;28;20038;-87
2022/11/09 09:51:01;;;;;;;49.33;31.58;;;;;;;;;;5013941;28;20460;-86
2022/11/09 09:53:43;;;;;;;51.53;33.38;;;;;;;;;;5013396;28;20084;-88
2022/11/09 09:56:09;;;;;;;63.83;38.42;;;;;;;;;;5013367;28;20076;-87
2022/11/09 09:58:38;;;;;;;57.10;39.47;;;;;;;;;;5013737;28;20129;-85
2022/11/09 10:01:10;;;;;;;60.17;38.55;;;;;;;;;;5013089;28;20104;-85
2022/11/09 10:03:36;;;;;;;;;;;;;;;;;;5013812;28;20053;-85
2022/11/09 10:06:22;;;;;;;61.55;37.45;;;;;;;;;;5013262;28;19906;-84
2022/11/09 10:08:48;;;;;;;54.60;35.85;;;;;;;;;;5013727;28;20365;-85
2022/11/09 10:11:14;;;;;;;59.25;38.38;;;;;;;;;;5013610;28;20071;-85
2022/11/09 10:13:40;;;;;;;57.63;36.50;;;;;;;;;;5021300;28;20021;-83
2022/11/09 10:16:14;;;;;;;53.75;35.20;;;;;;;;;;5042961;28;20053;-88
2022/11/09 10:18:43;;;;;;;54.08;33.20;;;;;;;;;;5019076;28;20026;-88
2022/11/09 10:21:27;;;;;;;53.63;34.70;;;;;;;;;;5016176;28;20076;-86
2022/11/09 10:24:03;;;;;;;55.70;37.22;;;;;;;;;;5015753;28;20501;-86
2022/11/09 10:26:29;;;;;;;64.38;40.70;;;;;;;;;;5016128;28;20034;-89
2022/11/09 10:29:00;;;;;;;52.45;35.70;;;;;;;;;;5033551;28;20079;-88
2022/11/09 10:31:30;;;;;;;53.35;35.65;;;;;;;;;;5034042;28;20025;-89
2022/11/09 10:33:59;;;;;;;55.90;35.05;;;;;;;;;;5016574;28;20475;-87
2022/11/09 10:36:28;;;;;;;51.53;32.78;;;;;;;;;;5016451;28;20033;-87
2022/11/09 10:38:59;;;;;;;54.08;34.65;;;;;;;;;;5016596;28;20029;-89
2022/11/09 10:41:49;;;;;;;53.20;35.47;;;;;;;;;;5016456;28;20076;-91
2022/11/09 10:44:18;;;;;;;50.53;33.00;;;;;;;;;;5017106;28;20053;-85
2022/11/09 10:47:05;;;;;;;54.53;35.63;;;;;;;;;;5033792;28;20025;-88
2022/11/09 10:49:32;;;;;;;50.63;32.90;;;;;;;;;;5015965;28;20040;-86
2022/11/09 10:51:59;;;;;;;53.00;34.42;;;;;;;;;;5019555;28;20483;-87
2022/11/09 10:54:27;;;;;;;55.22;35.08;;;;;;;;;;5020027;28;20501;-87
2022/11/09 10:57:12;;;;;;;54.30;34.78;;;;;;;;;;5019604;28;20159;-88
2022/11/09 10:59:48;;;;;;;54.45;34.40;;;;;;;;;;5037610;28;20021;-87
2022/11/09 11:02:27;;;;;;;53.08;36.35;;;;;;;;;;5020247;28;20029;-86
2022/11/09 11:05:06;;;;;;;63.97;41.90;;;;;;;;;;5019926;28;20021;-85
2022/11/09 11:07:32;;;;;;;56.33;35.58;;;;;;;;;;5020199;28;20061;-85
2022/11/09 11:10:22;;;;;;;50.90;33.38;;;;;;;;;;5019917;28;20040;-87
2022/11/09 11:12:52;;;;;;;52.08;32.60;;;;;;;;;;5018794;28;20506;-84
2022/11/09 11:15:53;;;;;;;50.33;30.63;;;;;;;;;;5037658;28;20094;-85
2022/11/09 11:18:22;;;;;;;60.65;35.03;;;;;;;;;;4956719;29;20477;-86
2022/11/09 11:20:48;;;;;;;60.17;36.35;;;;;;;;;;5008441;28;20128;-85
2022/11/09 11:23:17;;;;;;;49.67;31.90;;;;;;;;;;5037083;28;20072;-83
2022/11/09 11:25:52;;;;;;;63.25;36.75;;;;;;;;;;5019210;28;20546;-85
2022/11/09 11:28:37;;;;;;;54.10;33.80;;;;;;;;;;5019400;28;20021;-84
2022/11/09 11:31:04;;;;;;;55.00;33.38;;;;;;;;;;5019154;28;20022;-87
2022/11/09 11:33:32;;;;;;;58.70;35.90;;;;;;;;;;5018843;28;20034;-83
2022/11/09 11:36:04;;;;;;;48.08;33.30;;;;;;;;;;5022273;28;20021;-85
2022/11/09 11:38:34;;;;;;;52.22;32.63;;;;;;;;;;5038985;28;20056;-83
2022/11/09 11:41:20;;;;;;;51.95;33.03;;;;;;;;;;5037824;28;20036;-84
2022/11/09 11:43:49;;;;;;;58.20;32.33;;;;;;;;;;5038077;28;20040;-84
2022/11/09 11:46:23;;;;;;;55.58;34.90;;;;;;;;;;5054680;28;20029;-84
2022/11/09 11:49:09;;;;;;;49.53;32.63;;;;;;;;;;5037565;28;20028;-83
2022/11/09 11:51:35;;;;;;;52.13;30.95;;;;;;;;;;5021078;28;20036;-83
2022/11/09 11:54:19;;;;;;;53.58;35.35;;;;;;;;;;5038468;28;20417;-86
2022/11/09 11:56:47;;;;;;;60.50;39.15;;;;;;;;;;5039108;28;20120;-86
2022/11/09 11:59:29;;;;;;;63.13;38.78;;;;;;;;;;5039035;28;20378;-85
2022/11/09 12:02:19;;;;;;;72.15;48.47;;;;;;;;;;5037360;28;20032;-85
2022/11/09 12:04:48;;;;;;;71.80;51.97;;;;;;;;;;5038863;28;20036;-88
2022/11/09 12:07:37;;;;;;;71.30;47.47;;;;;;;;;;5038399;28;20029;-84
2022/11/09 12:10:03;;;;;;;72.93;49.55;;;;;;;;;;5025413;28;20025;-84
2022/11/09 12:12:32;;;;;;;72.25;45.45;;;;;;;;;;5038346;28;20025;-84
2022/11/09 12:15:04;;;;;;;72.20;48.38;;;;;;;;;;5022101;28;20045;-87
2022/11/09 12:17:30;;;;;;;71.20;48.83;;;;;;;;;;5018327;28;20036;-84
2022/11/09 12:20:00;;;;;;;74.20;48.03;;;;;;;;;;5017713;28;20026;-84
2022/11/09 12:22:32;;;;;;;78.97;53.03;;;;;;;;;;5035746;28;20473;-84
2022/11/09 12:25:16;;;;;;;72.07;48.42;;;;;;;;;;5036190;28;20467;-82
2022/11/09 12:27:43;;;;;;;75.03;50.65;;;;;;;;;;5018412;28;20152;-84
2022/11/09 12:30:14;;;;;;;69.18;45.45;;;;;;;;;;5018418;28;20025;-85
2022/11/09 12:32:43;;;;;;;85.00;54.80;;;;;;;;;;5018429;28;20043;-85
2022/11/09 12:35:09;;;;;;;89.32;58.60;;;;;;;;;;5035536;28;20478;-84
2022/11/09 12:37:38;;;;;;;71.32;47.40;;;;;;;;;;5018404;28;20071;-84
2022/11/09 12:40:25;;;;;;;69.30;48.65;;;;;;;;;;5035931;28;20029;-85
2022/11/09 12:42:59;;;;;;;75.13;49.50;;;;;;;;;;5034529;28;20022;-86
2022/11/09 12:45:28;;;;;;;64.85;45.10;;;;;;;;;;5018546;28;20017;-86
2022/11/09 12:47:57;;;;;;;61.72;43.80;;;;;;;;;;5018128;28;20025;-85
2022/11/09 12:50:25;;;;;;;63.70;46.80;;;;;;;;;;5017906;28;20021;-84
2022/11/09 12:52:52;;;;;;;66.72;46.45;;;;;;;;;;5035528;28;20070;-84
2022/11/09 12:55:20;;;;;;;67.85;45.67;;;;;;;;;;5017594;28;20032;-85
2022/11/09 12:57:47;;;;;;;100.85;75.03;;;;;;;;;;5017629;28;20029;-83
2022/11/09 13:00:31;;;;;;;71.05;49.88;;;;;;;;;;5018050;28;20033;-85
2022/11/09 13:02:59;;;;;;;67.70;51.15;;;;;;;;;;5018079;28;20048;-83
2022/11/09 13:05:28;;;;;;;80.25;56.10;;;;;;;;;;5017740;28;20112;-83
2022/11/09 13:07:54;;;;;;;65.82;49.05;;;;;;;;;;5017760;28;20030;-88
2022/11/09 13:10:34;;;;;;;70.00;49.72;;;;;;;;;;5035133;28;20104;-84
2022/11/09 13:13:05;;;;;;;69.15;49.50;;;;;;;;;;5017403;28;20030;-83
2022/11/09 13:15:33;;;;;;;72.70;50.97;;;;;;;;;;5035685;28;20054;-85
2022/11/09 13:18:02;;;;;;;67.78;47.95;;;;;;;;;;5018240;28;20379;-85
2022/11/09 13:20:34;;;;;;;73.43;53.03;;;;;;;;;;5022204;28;20391;-86
2022/11/09 13:23:02;;;;;;;77.68;55.95;;;;;;;;;;5038131;28;20021;-86
2022/11/09 13:25:49;;;;;;;83.97;59.30;;;;;;;;;;5029518;28;20037;-87
2022/11/09 13:28:40;;;;;;;79.82;59.13;;;;;;;;;;5035573;28;20348;-87
2022/11/09 13:31:08;;;;;;;72.13;50.00;;;;;;;;;;5017805;28;20078;-88
2022/11/09 13:33:34;;;;;;;80.13;55.90;;;;;;;;;;5017888;28;20179;-88
2022/11/09 13:36:06;;;;;;;82.88;57.60;;;;;;;;;;5018003;28;20038;-85
2022/11/09 13:38:33;;;;;;;56.13;43.38;;;;;;;;;;5017913;28;20468;-86
2022/11/09 13:41:00;;;;;;;51.83;38.40;;;;;;;;;;5017794;28;20033;-85
2022/11/09 13:43:28;;;;;;;52.65;37.20;;;;;;;;;;5017769;28;20049;-85
2022/11/09 13:46:00;;;;;;;55.35;40.45;;;;;;;;;;5035266;28;20087;-87
2022/11/09 13:48:34;;;;;;;60.65;39.42;;;;;;;;;;5017571;28;20053;-83
2022/11/09 13:51:02;;;;;;;59.33;39.42;;;;;;;;;;5017255;28;20036;-87
2022/11/09 13:53:37;;;;;;;46.95;34.63;;;;;;;;;;5031043;28;20439;-85
2022/11/09 13:56:22;;;;;;;49.40;37.33;;;;;;;;;;5037532;28;20021;-84
2022/11/09 13:58:49;;;;;;;48.22;36.70;;;;;;;;;;5036934;28;20029;-85
2022/11/09 14:01:26;;;;;;;47.60;34.00;;;;;;;;;;5036546;28;20025;-85
2022/11/09 14:03:52;;;;;;;57.85;44.70;;;;;;;;;;5036872;28;20036;-83
2022/11/09 14:06:18;;;;;;;48.15;37.45;;;;;;;;;;5036495;28;20021;-83
2022/11/09 14:08:45;;;;;;;58.15;40.45;;;;;;;;;;5037105;28;20036;-84
2022/11/09 14:11:30;;;;;;;49.95;38.55;;;;;;;;;;5036710;28;20104;-85
2022/11/09 14:14:14;;;;;;;49.33;36.10;;;;;;;;;;5036220;28;20025;-83
2022/11/09 14:16:59;;;;;;;53.85;37.83;;;;;;;;;;5036499;28;20043;-86
2022/11/09 14:19:42;;;;;;;50.38;37.30;;;;;;;;;;5036455;28;20087;-85
2022/11/09 14:22:14;;;;;;;52.65;35.85;;;;;;;;;;5036124;28;20025;-83
2022/11/09 14:24:41;;;;;;;46.85;34.72;;;;;;;;;;5035544;28;20083;-86
2022/11/09 14:27:10;;;;;;;53.50;36.17;;;;;;;;;;5036054;28;20036;-85
2022/11/09 14:29:53;;;;;;;49.25;36.00;;;;;;;;;;5036667;28;20087;-85
2022/11/09 14:32:24;;;;;;;52.35;35.50;;;;;;;;;;5036482;28;20111;-85
2022/11/09 14:34:50;;;;;;;53.50;37.45;;;;;;;;;;5036173;28;20079;-84
2022/11/09 14:37:16;;;;;;;46.42;34.03;;;;;;;;;;5036406;28;20025;-84
2022/11/09 14:39:46;;;;;;;52.42;34.97;;;;;;;;;;5036478;28;20108;-84
2022/11/09 14:42:17;;;;;;;60.05;39.33;;;;;;;;;;5036136;28;20021;-82